WAT5610 KFLL-MMUN
Flight info
| Callsign | WAT5610 |
|---|---|
| Flight time | 1h 45m |
| Altitude | 34000 |
| Route | GLADZ4 LULLS Y196 CANOA UB879 NOSAT NOSAT1B |
| Aircraft | A320/M-SDE3FGHIRWY/LB1 |
Departure
| Time | 2026-05-06 00:17 |
|---|---|
| Airport | Fort Lauderdale Hollywood International Airport (KFLL) |
Arrival
| Time | 2026-05-06 02:02 |
|---|---|
| Airport | Cancún International Airport (MMUN) |
| Time | Latitude | Longitude | Altitude | Speed | Heading |
|---|---|---|---|---|---|
| 2026-05-05 23:40 | 26.07266 | -80.14654 | 22 ft | 0 kts | 43° |
| 2026-05-06 00:03 | 26.07251 | -80.14669 | 6 ft | 4 kts | 44° |
| 2026-05-06 00:04 | 26.07231 | -80.14689 | 23 ft | 4 kts | 33° |
| 2026-05-06 00:04 | 26.07212 | -80.14698 | 21 ft | 4 kts | 324° |
| 2026-05-06 00:04 | 26.07208 | -80.14692 | 21 ft | 1 kts | 292° |
| 2026-05-06 00:04 | 26.07207 | -80.14691 | 21 ft | 0 kts | 292° |
| 2026-05-06 00:07 | 26.07209 | -80.14694 | 21 ft | 2 kts | 292° |
| 2026-05-06 00:07 | 26.07219 | -80.14723 | 21 ft | 5 kts | 294° |
| 2026-05-06 00:07 | 26.07235 | -80.14760 | 22 ft | 6 kts | 295° |
| 2026-05-06 00:08 | 26.07254 | -80.14797 | 22 ft | 0 kts | 300° |
| 2026-05-06 00:08 | 26.07255 | -80.14798 | 22 ft | 0 kts | 300° |
| 2026-05-06 00:10 | 26.07262 | -80.14811 | 24 ft | 3 kts | 300° |
| 2026-05-06 00:10 | 26.07267 | -80.14820 | 24 ft | 3 kts | 300° |
| 2026-05-06 00:11 | 26.07297 | -80.14847 | 22 ft | 8 kts | 336° |
| 2026-05-06 00:11 | 26.07365 | -80.14885 | 21 ft | 14 kts | 308° |
| 2026-05-06 00:11 | 26.07377 | -80.14903 | 22 ft | 0 kts | 304° |
| 2026-05-06 00:12 | 26.07387 | -80.14921 | 20 ft | 7 kts | 304° |
| 2026-05-06 00:12 | 26.07441 | -80.14991 | 22 ft | 16 kts | 314° |
| 2026-05-06 00:12 | 26.07526 | -80.15086 | 19 ft | 20 kts | 315° |
| 2026-05-06 00:13 | 26.07561 | -80.15243 | 17 ft | 24 kts | 269° |
| 2026-05-06 00:13 | 26.07564 | -80.15435 | 17 ft | 26 kts | 272° |
| 2026-05-06 00:13 | 26.07567 | -80.15639 | 18 ft | 27 kts | 270° |
| 2026-05-06 00:13 | 26.07569 | -80.15847 | 22 ft | 27 kts | 270° |
| 2026-05-06 00:14 | 26.07569 | -80.16057 | 25 ft | 28 kts | 270° |
| 2026-05-06 00:14 | 26.07569 | -80.16275 | 28 ft | 29 kts | 270° |
| 2026-05-06 00:14 | 26.07568 | -80.16499 | 24 ft | 25 kts | 270° |
| 2026-05-06 00:14 | 26.07590 | -80.16552 | 24 ft | 0 kts | 316° |
| 2026-05-06 00:15 | 26.07592 | -80.16554 | 24 ft | 2 kts | 316° |
| 2026-05-06 00:15 | 26.07668 | -80.16562 | 23 ft | 17 kts | 33° |
| 2026-05-06 00:15 | 26.07695 | -80.16461 | 25 ft | 7 kts | 91° |
| 2026-05-06 00:16 | 26.07695 | -80.16460 | 25 ft | 0 kts | 91° |
| 2026-05-06 00:16 | 26.07694 | -80.16403 | 26 ft | 32 kts | 91° |
| 2026-05-06 00:16 | 26.07693 | -80.15895 | 25 ft | 96 kts | 90° |
| 2026-05-06 00:16 | 26.07690 | -80.14981 | 20 ft | 140 kts | 90° |
| 2026-05-06 00:17 | 26.07668 | -80.13839 | 483 ft | 143 kts | 94° |
| 2026-05-06 00:17 | 26.07657 | -80.12737 | 1046 ft | 143 kts | 84° |
| 2026-05-06 00:17 | 26.07700 | -80.11626 | 1628 ft | 144 kts | 86° |
| 2026-05-06 00:17 | 26.07750 | -80.10449 | 2010 ft | 160 kts | 84° |
| 2026-05-06 00:18 | 26.08055 | -80.09186 | 2280 ft | 179 kts | 64° |
| 2026-05-06 00:18 | 26.08628 | -80.07891 | 2517 ft | 196 kts | 53° |
| 2026-05-06 00:18 | 26.09677 | -80.06895 | 2906 ft | 203 kts | 25° |
| 2026-05-06 00:18 | 26.11006 | -80.06346 | 3422 ft | 204 kts | 19° |
| 2026-05-06 00:19 | 26.12350 | -80.05809 | 3900 ft | 208 kts | 18° |
| 2026-05-06 00:19 | 26.13732 | -80.05278 | 4361 ft | 212 kts | 12° |
| 2026-05-06 00:19 | 26.15192 | -80.05026 | 4839 ft | 213 kts | 358° |
| 2026-05-06 00:19 | 26.16662 | -80.05141 | 5287 ft | 213 kts | 346° |
| 2026-05-06 00:20 | 26.18084 | -80.05605 | 5776 ft | 213 kts | 338° |
| 2026-05-06 00:20 | 26.19497 | -80.06158 | 6215 ft | 219 kts | 339° |
| 2026-05-06 00:20 | 26.20945 | -80.06916 | 6436 ft | 242 kts | 324° |
| 2026-05-06 00:20 | 26.22281 | -80.08181 | 6805 ft | 262 kts | 309° |
| 2026-05-06 00:21 | 26.23299 | -80.09891 | 7432 ft | 269 kts | 294° |
| 2026-05-06 00:21 | 26.24008 | -80.11837 | 8196 ft | 273 kts | 291° |
| 2026-05-06 00:21 | 26.24711 | -80.13811 | 9002 ft | 275 kts | 290° |
| 2026-05-06 00:21 | 26.25260 | -80.15856 | 9774 ft | 278 kts | 280° |
| 2026-05-06 00:22 | 26.25421 | -80.18019 | 10284 ft | 290 kts | 270° |
| 2026-05-06 00:22 | 26.25367 | -80.20329 | 10607 ft | 305 kts | 269° |
| 2026-05-06 00:22 | 26.25297 | -80.22717 | 11184 ft | 310 kts | 267° |
| 2026-05-06 00:22 | 26.24818 | -80.25068 | 11786 ft | 317 kts | 248° |
| 2026-05-06 00:23 | 26.23556 | -80.27112 | 12380 ft | 327 kts | 227° |
| 2026-05-06 00:23 | 26.21883 | -80.28862 | 12980 ft | 331 kts | 225° |
| 2026-05-06 00:23 | 26.20174 | -80.30603 | 13593 ft | 335 kts | 225° |
| 2026-05-06 00:23 | 26.18436 | -80.32359 | 14146 ft | 339 kts | 225° |
| 2026-05-06 00:24 | 26.17280 | -80.33523 | 14492 ft | 341 kts | 225° |
| 2026-05-06 00:24 | 26.15496 | -80.35324 | 15034 ft | 344 kts | 225° |
| 2026-05-06 00:24 | 26.13720 | -80.37131 | 15588 ft | 346 kts | 225° |
| 2026-05-06 00:24 | 26.11958 | -80.38923 | 16108 ft | 349 kts | 225° |
| 2026-05-06 00:25 | 26.10156 | -80.40758 | 16636 ft | 352 kts | 226° |
| 2026-05-06 00:25 | 26.08351 | -80.42595 | 17162 ft | 355 kts | 226° |
| 2026-05-06 00:25 | 26.06518 | -80.44461 | 17687 ft | 357 kts | 226° |
| 2026-05-06 00:25 | 26.04676 | -80.46336 | 18226 ft | 360 kts | 226° |
| 2026-05-06 00:26 | 26.02823 | -80.48218 | 18681 ft | 363 kts | 226° |
| 2026-05-06 00:26 | 26.00945 | -80.50124 | 19150 ft | 366 kts | 226° |
| 2026-05-06 00:26 | 25.99062 | -80.52042 | 19623 ft | 368 kts | 226° |
| 2026-05-06 00:26 | 25.97178 | -80.53963 | 20064 ft | 370 kts | 227° |
| 2026-05-06 00:27 | 25.95264 | -80.55908 | 20494 ft | 373 kts | 227° |
| 2026-05-06 00:27 | 25.93349 | -80.57850 | 20876 ft | 377 kts | 227° |
| 2026-05-06 00:27 | 25.91401 | -80.59829 | 21292 ft | 379 kts | 227° |
| 2026-05-06 00:27 | 25.89443 | -80.61810 | 21704 ft | 382 kts | 227° |
| 2026-05-06 00:28 | 25.87472 | -80.63803 | 22132 ft | 384 kts | 227° |
| 2026-05-06 00:28 | 25.85492 | -80.65809 | 22557 ft | 386 kts | 227° |
| 2026-05-06 00:28 | 25.83492 | -80.67835 | 22969 ft | 389 kts | 227° |
| 2026-05-06 00:28 | 25.81491 | -80.69858 | 23387 ft | 391 kts | 228° |
| 2026-05-06 00:29 | 25.79647 | -80.72058 | 23747 ft | 387 kts | 238° |
| 2026-05-06 00:29 | 25.78242 | -80.74575 | 24082 ft | 382 kts | 249° |
| 2026-05-06 00:29 | 25.77299 | -80.77311 | 24418 ft | 379 kts | 258° |
| 2026-05-06 00:29 | 25.76548 | -80.80123 | 24770 ft | 381 kts | 258° |
| 2026-05-06 00:30 | 25.75785 | -80.82939 | 25123 ft | 383 kts | 258° |
| 2026-05-06 00:30 | 25.75011 | -80.85768 | 25472 ft | 384 kts | 258° |
| 2026-05-06 00:30 | 25.74231 | -80.88616 | 25825 ft | 386 kts | 258° |
| 2026-05-06 00:30 | 25.73444 | -80.91473 | 26153 ft | 388 kts | 258° |
| 2026-05-06 00:31 | 25.72652 | -80.94342 | 26488 ft | 390 kts | 258° |
| 2026-05-06 00:31 | 25.71861 | -80.97226 | 26825 ft | 392 kts | 258° |
| 2026-05-06 00:31 | 25.71072 | -81.00116 | 27160 ft | 394 kts | 258° |
| 2026-05-06 00:31 | 25.70276 | -81.03040 | 27495 ft | 396 kts | 258° |
| 2026-05-06 00:32 | 25.69477 | -81.05963 | 27829 ft | 398 kts | 258° |
| 2026-05-06 00:32 | 25.68675 | -81.08894 | 28156 ft | 400 kts | 258° |
| 2026-05-06 00:32 | 25.67867 | -81.11828 | 28479 ft | 402 kts | 258° |
| 2026-05-06 00:32 | 25.67048 | -81.14793 | 28807 ft | 404 kts | 258° |
| 2026-05-06 00:33 | 25.66218 | -81.17811 | 29144 ft | 406 kts | 258° |
| 2026-05-06 00:33 | 25.65369 | -81.20697 | 29464 ft | 411 kts | 253° |
| 2026-05-06 00:33 | 25.64078 | -81.23562 | 29811 ft | 420 kts | 244° |
| 2026-05-06 00:33 | 25.62329 | -81.26161 | 30147 ft | 430 kts | 234° |
| 2026-05-06 00:34 | 25.60151 | -81.28464 | 30426 ft | 438 kts | 227° |
| 2026-05-06 00:34 | 25.57862 | -81.30715 | 30734 ft | 439 kts | 228° |
| 2026-05-06 00:34 | 25.55586 | -81.32961 | 31028 ft | 441 kts | 228° |
| 2026-05-06 00:34 | 25.53303 | -81.35220 | 31330 ft | 443 kts | 228° |
| 2026-05-06 00:35 | 25.50986 | -81.37514 | 31666 ft | 445 kts | 228° |
| 2026-05-06 00:35 | 25.48678 | -81.39803 | 32090 ft | 443 kts | 229° |
| 2026-05-06 00:35 | 25.46390 | -81.42077 | 32512 ft | 442 kts | 229° |
| 2026-05-06 00:35 | 25.44098 | -81.44354 | 32930 ft | 442 kts | 229° |
| 2026-05-06 00:36 | 25.41819 | -81.46610 | 33342 ft | 441 kts | 229° |
| 2026-05-06 00:36 | 25.39533 | -81.48870 | 33745 ft | 441 kts | 229° |
| 2026-05-06 00:36 | 25.37242 | -81.51131 | 33994 ft | 442 kts | 229° |
| 2026-05-06 00:36 | 25.34963 | -81.53381 | 34039 ft | 431 kts | 229° |
| 2026-05-06 00:37 | 25.32775 | -81.55526 | 34036 ft | 417 kts | 229° |
| 2026-05-06 00:37 | 25.28490 | -81.59732 | 34040 ft | 408 kts | 230° |
| 2026-05-06 00:38 | 25.24269 | -81.63903 | 34038 ft | 407 kts | 230° |
| 2026-05-06 00:38 | 25.20046 | -81.68070 | 34040 ft | 406 kts | 230° |
| 2026-05-06 00:39 | 25.15437 | -81.71743 | 34041 ft | 420 kts | 213° |
| 2026-05-06 00:39 | 25.09862 | -81.73944 | 34023 ft | 428 kts | 205° |
| 2026-05-06 00:40 | 25.04206 | -81.75976 | 34028 ft | 428 kts | 205° |
| 2026-05-06 00:40 | 24.98537 | -81.78012 | 34030 ft | 429 kts | 205° |
| 2026-05-06 00:41 | 24.92867 | -81.80048 | 34034 ft | 429 kts | 205° |
| 2026-05-06 00:41 | 24.87190 | -81.82089 | 34051 ft | 429 kts | 205° |
| 2026-05-06 00:42 | 24.81505 | -81.84125 | 34052 ft | 429 kts | 205° |
| 2026-05-06 00:42 | 24.75828 | -81.86158 | 34028 ft | 430 kts | 204° |
| 2026-05-06 00:43 | 24.70131 | -81.88193 | 34039 ft | 430 kts | 204° |
| 2026-05-06 00:43 | 24.64440 | -81.90231 | 34040 ft | 431 kts | 204° |
| 2026-05-06 00:44 | 24.58730 | -81.92277 | 34037 ft | 431 kts | 204° |
| 2026-05-06 00:44 | 24.53069 | -81.94397 | 34047 ft | 426 kts | 211° |
| 2026-05-06 00:44 | 24.50511 | -81.95968 | 34053 ft | 416 kts | 223° |
| 2026-05-06 00:45 | 24.48310 | -81.97977 | 34053 ft | 406 kts | 233° |
| 2026-05-06 00:45 | 24.45129 | -82.02889 | 34043 ft | 389 kts | 252° |
| 2026-05-06 00:46 | 24.42801 | -82.08245 | 34044 ft | 389 kts | 251° |
| 2026-05-06 00:46 | 24.40451 | -82.13598 | 34045 ft | 390 kts | 251° |
| 2026-05-06 00:47 | 24.38102 | -82.18954 | 34047 ft | 390 kts | 251° |
| 2026-05-06 00:47 | 24.35751 | -82.24311 | 34053 ft | 390 kts | 251° |
| 2026-05-06 00:48 | 24.33392 | -82.29673 | 34052 ft | 390 kts | 251° |
| 2026-05-06 00:48 | 24.31029 | -82.35029 | 34053 ft | 390 kts | 251° |
| 2026-05-06 00:49 | 24.28672 | -82.40378 | 34057 ft | 390 kts | 251° |
| 2026-05-06 00:49 | 24.26311 | -82.45738 | 34053 ft | 390 kts | 251° |
| 2026-05-06 00:50 | 24.23955 | -82.51082 | 34054 ft | 390 kts | 251° |
| 2026-05-06 00:50 | 24.21595 | -82.56427 | 34054 ft | 389 kts | 251° |
| 2026-05-06 00:51 | 24.19235 | -82.61760 | 34042 ft | 390 kts | 251° |
| 2026-05-06 00:51 | 24.16857 | -82.67119 | 34034 ft | 391 kts | 251° |
| 2026-05-06 00:52 | 24.14483 | -82.72472 | 34042 ft | 391 kts | 251° |
| 2026-05-06 00:52 | 24.12106 | -82.77841 | 34045 ft | 392 kts | 251° |
| 2026-05-06 00:53 | 24.09728 | -82.83204 | 34043 ft | 392 kts | 251° |
| 2026-05-06 00:53 | 24.07331 | -82.88570 | 34053 ft | 392 kts | 251° |
| 2026-05-06 00:54 | 24.04950 | -82.93920 | 34054 ft | 392 kts | 251° |
| 2026-05-06 00:54 | 24.02561 | -82.99278 | 34058 ft | 392 kts | 251° |
| 2026-05-06 00:55 | 24.00134 | -83.04618 | 34057 ft | 395 kts | 246° |
| 2026-05-06 00:55 | 23.96916 | -83.09553 | 34058 ft | 400 kts | 240° |
| 2026-05-06 00:56 | 23.93603 | -83.14419 | 34057 ft | 400 kts | 240° |
| 2026-05-06 00:56 | 23.90277 | -83.19299 | 34039 ft | 400 kts | 240° |
| 2026-05-06 00:57 | 23.86954 | -83.24177 | 34043 ft | 401 kts | 240° |
| 2026-05-06 00:57 | 23.83630 | -83.29065 | 34045 ft | 401 kts | 240° |
| 2026-05-06 00:58 | 23.80293 | -83.33958 | 34046 ft | 402 kts | 240° |
| 2026-05-06 00:58 | 23.76952 | -83.38850 | 34049 ft | 402 kts | 240° |
| 2026-05-06 00:59 | 23.73617 | -83.43739 | 34050 ft | 402 kts | 240° |
| 2026-05-06 00:59 | 23.70270 | -83.48631 | 34051 ft | 402 kts | 240° |
| 2026-05-06 01:00 | 23.66921 | -83.53509 | 34050 ft | 402 kts | 240° |
| 2026-05-06 01:00 | 23.63577 | -83.58393 | 34060 ft | 401 kts | 240° |
| 2026-05-06 01:01 | 23.60238 | -83.63261 | 34045 ft | 401 kts | 239° |
| 2026-05-06 01:01 | 23.56894 | -83.68132 | 34047 ft | 401 kts | 239° |
| 2026-05-06 01:02 | 23.53544 | -83.72999 | 34044 ft | 401 kts | 239° |
| 2026-05-06 01:02 | 23.50192 | -83.77863 | 34048 ft | 401 kts | 239° |
| 2026-05-06 01:03 | 23.46855 | -83.82706 | 34053 ft | 401 kts | 239° |
| 2026-05-06 01:03 | 23.43506 | -83.87564 | 34053 ft | 401 kts | 239° |
| 2026-05-06 01:04 | 23.40153 | -83.92422 | 34055 ft | 401 kts | 239° |
| 2026-05-06 01:04 | 23.36806 | -83.97264 | 34059 ft | 400 kts | 239° |
| 2026-05-06 01:05 | 23.33454 | -84.02106 | 34061 ft | 400 kts | 239° |
| 2026-05-06 01:05 | 23.30681 | -84.06110 | 34050 ft | 399 kts | 238° |
| 2026-05-06 01:06 | 23.27329 | -84.10937 | 34052 ft | 399 kts | 238° |
| 2026-05-06 01:06 | 23.23988 | -84.15757 | 34050 ft | 399 kts | 238° |
| 2026-05-06 01:07 | 23.20656 | -84.20567 | 34044 ft | 398 kts | 238° |
| 2026-05-06 01:07 | 23.17315 | -84.25376 | 34045 ft | 398 kts | 238° |
| 2026-05-06 01:08 | 23.13981 | -84.30170 | 34040 ft | 398 kts | 238° |
| 2026-05-06 01:08 | 23.10642 | -84.34961 | 34046 ft | 397 kts | 238° |
| 2026-05-06 01:09 | 23.07303 | -84.39737 | 34049 ft | 396 kts | 238° |
| 2026-05-06 01:09 | 23.03985 | -84.44504 | 34049 ft | 396 kts | 238° |
| 2026-05-06 01:10 | 23.00664 | -84.49277 | 34043 ft | 396 kts | 237° |
| 2026-05-06 01:10 | 22.97340 | -84.54039 | 34042 ft | 396 kts | 237° |
| 2026-05-06 01:11 | 22.94003 | -84.58805 | 34045 ft | 397 kts | 237° |
| 2026-05-06 01:11 | 22.90666 | -84.63571 | 34043 ft | 397 kts | 237° |
| 2026-05-06 01:12 | 22.87333 | -84.68331 | 34032 ft | 397 kts | 237° |
| 2026-05-06 01:12 | 22.83973 | -84.73121 | 34030 ft | 399 kts | 237° |
| 2026-05-06 01:13 | 22.80615 | -84.77904 | 34029 ft | 399 kts | 237° |
| 2026-05-06 01:13 | 22.77266 | -84.82665 | 34024 ft | 400 kts | 236° |
| 2026-05-06 01:14 | 22.72200 | -84.89859 | 34030 ft | 400 kts | 237° |
| 2026-05-06 01:14 | 22.68828 | -84.94654 | 34025 ft | 401 kts | 236° |
| 2026-05-06 01:15 | 22.65453 | -84.99450 | 34017 ft | 402 kts | 236° |
| 2026-05-06 01:15 | 22.62059 | -85.04270 | 34021 ft | 402 kts | 236° |
| 2026-05-06 01:16 | 22.58660 | -85.09095 | 34018 ft | 403 kts | 237° |
| 2026-05-06 01:16 | 22.55286 | -85.13937 | 34019 ft | 403 kts | 237° |
| 2026-05-06 01:17 | 22.51920 | -85.18796 | 34024 ft | 404 kts | 237° |
| 2026-05-06 01:17 | 22.48541 | -85.23648 | 34029 ft | 404 kts | 237° |
| 2026-05-06 01:18 | 22.45158 | -85.28496 | 34027 ft | 404 kts | 237° |
| 2026-05-06 01:18 | 22.41740 | -85.33389 | 34020 ft | 416 kts | 237° |
| 2026-05-06 01:19 | 22.38185 | -85.38484 | 33921 ft | 432 kts | 236° |
| 2026-05-06 01:19 | 22.36385 | -85.41056 | 33132 ft | 428 kts | 236° |
| 2026-05-06 01:19 | 22.34593 | -85.43613 | 32329 ft | 423 kts | 236° |
| 2026-05-06 01:20 | 22.32825 | -85.46129 | 31585 ft | 418 kts | 236° |
| 2026-05-06 01:20 | 22.31078 | -85.48612 | 30842 ft | 413 kts | 236° |
| 2026-05-06 01:20 | 22.29329 | -85.51099 | 29985 ft | 418 kts | 236° |
| 2026-05-06 01:20 | 22.27593 | -85.53571 | 29794 ft | 408 kts | 236° |
| 2026-05-06 01:21 | 22.25894 | -85.55993 | 29368 ft | 404 kts | 236° |
| 2026-05-06 01:21 | 22.24204 | -85.58407 | 28958 ft | 400 kts | 236° |
| 2026-05-06 01:21 | 22.22539 | -85.60790 | 28584 ft | 396 kts | 236° |
| 2026-05-06 01:21 | 22.20899 | -85.63140 | 28205 ft | 393 kts | 236° |
| 2026-05-06 01:22 | 22.19248 | -85.65502 | 27829 ft | 390 kts | 236° |
| 2026-05-06 01:22 | 22.17622 | -85.67824 | 27436 ft | 387 kts | 236° |
| 2026-05-06 01:22 | 22.16005 | -85.70136 | 27073 ft | 384 kts | 236° |
| 2026-05-06 01:22 | 22.14400 | -85.72431 | 26685 ft | 382 kts | 236° |
| 2026-05-06 01:23 | 22.12806 | -85.74706 | 26303 ft | 379 kts | 236° |
| 2026-05-06 01:23 | 22.11219 | -85.76966 | 25915 ft | 377 kts | 236° |
| 2026-05-06 01:23 | 22.09637 | -85.79218 | 25514 ft | 376 kts | 237° |
| 2026-05-06 01:23 | 22.08062 | -85.81460 | 25113 ft | 374 kts | 237° |
| 2026-05-06 01:24 | 22.06496 | -85.83692 | 24711 ft | 372 kts | 236° |
| 2026-05-06 01:24 | 22.04938 | -85.85911 | 24311 ft | 371 kts | 236° |
| 2026-05-06 01:24 | 22.03381 | -85.88125 | 23905 ft | 371 kts | 236° |
| 2026-05-06 01:24 | 22.01820 | -85.90346 | 23467 ft | 370 kts | 236° |
| 2026-05-06 01:25 | 22.00267 | -85.92554 | 23027 ft | 369 kts | 236° |
| 2026-05-06 01:25 | 21.98723 | -85.94747 | 22622 ft | 366 kts | 236° |
| 2026-05-06 01:25 | 21.97193 | -85.96918 | 22213 ft | 364 kts | 236° |
| 2026-05-06 01:25 | 21.95480 | -85.98936 | 21863 ft | 364 kts | 224° |
| 2026-05-06 01:26 | 21.93566 | -86.00720 | 21797 ft | 366 kts | 224° |
| 2026-05-06 01:26 | 21.91646 | -86.02525 | 21700 ft | 367 kts | 224° |
| 2026-05-06 01:26 | 21.89731 | -86.04335 | 21578 ft | 367 kts | 224° |
| 2026-05-06 01:26 | 21.87815 | -86.06150 | 21449 ft | 367 kts | 224° |
| 2026-05-06 01:27 | 21.85894 | -86.07966 | 21335 ft | 366 kts | 224° |
| 2026-05-06 01:27 | 21.83974 | -86.09775 | 21196 ft | 366 kts | 224° |
| 2026-05-06 01:27 | 21.82062 | -86.11575 | 21084 ft | 365 kts | 224° |
| 2026-05-06 01:27 | 21.80152 | -86.13375 | 20958 ft | 365 kts | 224° |
| 2026-05-06 01:28 | 21.78243 | -86.15171 | 20837 ft | 364 kts | 224° |
| 2026-05-06 01:28 | 21.76334 | -86.16964 | 20710 ft | 364 kts | 224° |
| 2026-05-06 01:28 | 21.74430 | -86.18752 | 20573 ft | 363 kts | 224° |
| 2026-05-06 01:28 | 21.72525 | -86.20541 | 20457 ft | 363 kts | 224° |
| 2026-05-06 01:29 | 21.70625 | -86.22326 | 20338 ft | 363 kts | 224° |
| 2026-05-06 01:29 | 21.68723 | -86.24114 | 20216 ft | 362 kts | 224° |
| 2026-05-06 01:29 | 21.66831 | -86.25892 | 20095 ft | 362 kts | 224° |
| 2026-05-06 01:29 | 21.64932 | -86.27674 | 19950 ft | 362 kts | 223° |
| 2026-05-06 01:30 | 21.63025 | -86.29465 | 19490 ft | 364 kts | 223° |
| 2026-05-06 01:30 | 21.61122 | -86.31251 | 19086 ft | 363 kts | 223° |
| 2026-05-06 01:30 | 21.59226 | -86.33032 | 18683 ft | 362 kts | 223° |
| 2026-05-06 01:30 | 21.57334 | -86.34808 | 18340 ft | 360 kts | 223° |
| 2026-05-06 01:31 | 21.55444 | -86.36580 | 17913 ft | 359 kts | 223° |
| 2026-05-06 01:31 | 21.53571 | -86.38332 | 17514 ft | 357 kts | 223° |
| 2026-05-06 01:31 | 21.51581 | -86.39905 | 17192 ft | 354 kts | 215° |
| 2026-05-06 01:31 | 21.49538 | -86.41359 | 16840 ft | 351 kts | 215° |
| 2026-05-06 01:32 | 21.47517 | -86.42807 | 16457 ft | 349 kts | 215° |
| 2026-05-06 01:32 | 21.45505 | -86.44251 | 16116 ft | 347 kts | 215° |
| 2026-05-06 01:32 | 21.43498 | -86.45690 | 15771 ft | 343 kts | 215° |
| 2026-05-06 01:32 | 21.41531 | -86.47098 | 15179 ft | 339 kts | 215° |
| 2026-05-06 01:33 | 21.39593 | -86.48485 | 14753 ft | 335 kts | 215° |
| 2026-05-06 01:33 | 21.37642 | -86.49882 | 14383 ft | 335 kts | 214° |
| 2026-05-06 01:33 | 21.35707 | -86.51269 | 14036 ft | 334 kts | 215° |
| 2026-05-06 01:33 | 21.33782 | -86.52646 | 13759 ft | 330 kts | 215° |
| 2026-05-06 01:34 | 21.31878 | -86.54006 | 13311 ft | 326 kts | 215° |
| 2026-05-06 01:34 | 21.30007 | -86.55340 | 12715 ft | 322 kts | 214° |
| 2026-05-06 01:34 | 21.28144 | -86.56667 | 12304 ft | 319 kts | 215° |
| 2026-05-06 01:34 | 21.26293 | -86.57987 | 11916 ft | 319 kts | 215° |
| 2026-05-06 01:35 | 21.24445 | -86.59308 | 11570 ft | 318 kts | 216° |
| 2026-05-06 01:35 | 21.22608 | -86.60622 | 11261 ft | 315 kts | 214° |
| 2026-05-06 01:35 | 21.20793 | -86.61918 | 10938 ft | 312 kts | 215° |
| 2026-05-06 01:35 | 21.18992 | -86.63201 | 10372 ft | 310 kts | 214° |
| 2026-05-06 01:36 | 21.17217 | -86.64467 | 9906 ft | 303 kts | 215° |
| 2026-05-06 01:36 | 21.15456 | -86.65723 | 9481 ft | 304 kts | 215° |
| 2026-05-06 01:36 | 21.13697 | -86.66977 | 9118 ft | 304 kts | 214° |
| 2026-05-06 01:36 | 21.11948 | -86.68223 | 8779 ft | 302 kts | 214° |
| 2026-05-06 01:37 | 21.10212 | -86.69458 | 8591 ft | 294 kts | 214° |
| 2026-05-06 01:37 | 21.08600 | -86.70672 | 8437 ft | 274 kts | 224° |
| 2026-05-06 01:37 | 21.07599 | -86.72319 | 8184 ft | 260 kts | 257° |
| 2026-05-06 01:37 | 21.07516 | -86.74215 | 7995 ft | 257 kts | 285° |
| 2026-05-06 01:38 | 21.08279 | -86.75914 | 7693 ft | 254 kts | 306° |
| 2026-05-06 01:38 | 21.09264 | -86.77482 | 7386 ft | 254 kts | 306° |
| 2026-05-06 01:38 | 21.10250 | -86.79050 | 7086 ft | 254 kts | 306° |
| 2026-05-06 01:38 | 21.11234 | -86.80617 | 6780 ft | 255 kts | 306° |
| 2026-05-06 01:39 | 21.12227 | -86.82198 | 6470 ft | 255 kts | 306° |
| 2026-05-06 01:39 | 21.13200 | -86.83751 | 6186 ft | 254 kts | 306° |
| 2026-05-06 01:39 | 21.14180 | -86.85316 | 5904 ft | 253 kts | 305° |
| 2026-05-06 01:39 | 21.15167 | -86.86892 | 5619 ft | 252 kts | 305° |
| 2026-05-06 01:40 | 21.16131 | -86.88430 | 5344 ft | 251 kts | 305° |
| 2026-05-06 01:40 | 21.17119 | -86.90010 | 5061 ft | 252 kts | 304° |
| 2026-05-06 01:40 | 21.18083 | -86.91554 | 4779 ft | 252 kts | 304° |
| 2026-05-06 01:40 | 21.19061 | -86.93128 | 4488 ft | 250 kts | 304° |
| 2026-05-06 01:41 | 21.20026 | -86.94676 | 4206 ft | 250 kts | 304° |
| 2026-05-06 01:41 | 21.20989 | -86.96216 | 3938 ft | 249 kts | 304° |
| 2026-05-06 01:41 | 21.21951 | -86.97756 | 3663 ft | 247 kts | 304° |
| 2026-05-06 01:41 | 21.22904 | -86.99281 | 3378 ft | 246 kts | 304° |
| 2026-05-06 01:42 | 21.23854 | -87.00807 | 3104 ft | 246 kts | 303° |
| 2026-05-06 01:42 | 21.24778 | -87.02292 | 2999 ft | 237 kts | 303° |
| 2026-05-06 01:42 | 21.25676 | -87.03734 | 2996 ft | 222 kts | 303° |
| 2026-05-06 01:42 | 21.26503 | -87.05061 | 2994 ft | 209 kts | 303° |
| 2026-05-06 01:43 | 21.27298 | -87.06338 | 3002 ft | 207 kts | 303° |
| 2026-05-06 01:43 | 21.28105 | -87.07641 | 3006 ft | 207 kts | 301° |
| 2026-05-06 01:43 | 21.28712 | -87.08979 | 3220 ft | 185 kts | 285° |
| 2026-05-06 01:43 | 21.28958 | -87.10185 | 4159 ft | 153 kts | 272° |
| 2026-05-06 01:44 | 21.28928 | -87.11353 | 4637 ft | 170 kts | 259° |
| 2026-05-06 01:44 | 21.28606 | -87.12562 | 5446 ft | 164 kts | 244° |
| 2026-05-06 01:44 | 21.28055 | -87.13604 | 6281 ft | 161 kts | 231° |
| 2026-05-06 01:44 | 21.27216 | -87.14523 | 6618 ft | 196 kts | 216° |
| 2026-05-06 01:45 | 21.25905 | -87.15326 | 6858 ft | 235 kts | 200° |
| 2026-05-06 01:45 | 21.24357 | -87.15986 | 7711 ft | 241 kts | 204° |
| 2026-05-06 01:45 | 21.22572 | -87.16435 | 7473 ft | 298 kts | 183° |
| 2026-05-06 01:45 | 21.20363 | -87.16618 | 6615 ft | 329 kts | 188° |
| 2026-05-06 01:46 | 21.18126 | -87.17373 | 5532 ft | 348 kts | 201° |
| 2026-05-06 01:46 | 21.15802 | -87.18289 | 4378 ft | 362 kts | 199° |
| 2026-05-06 01:46 | 21.13526 | -87.19518 | 3450 ft | 368 kts | 208° |
| 2026-05-06 01:46 | 21.11360 | -87.20871 | 3149 ft | 353 kts | 208° |
| 2026-05-06 01:47 | 21.09315 | -87.22230 | 2998 ft | 337 kts | 215° |
| 2026-05-06 01:47 | 21.07823 | -87.24077 | 2995 ft | 323 kts | 238° |
| 2026-05-06 01:47 | 21.06874 | -87.26186 | 3000 ft | 306 kts | 243° |
| 2026-05-06 01:47 | 21.06031 | -87.28220 | 2998 ft | 291 kts | 243° |
| 2026-05-06 01:48 | 21.05246 | -87.30143 | 3001 ft | 276 kts | 244° |
| 2026-05-06 01:48 | 21.04753 | -87.31377 | 2999 ft | 267 kts | 246° |
| 2026-05-06 01:48 | 21.04506 | -87.33285 | 3002 ft | 257 kts | 276° |
| 2026-05-06 01:48 | 21.05141 | -87.34997 | 3001 ft | 243 kts | 307° |
| 2026-05-06 01:49 | 21.06196 | -87.36324 | 3006 ft | 228 kts | 313° |
| 2026-05-06 01:49 | 21.07327 | -87.37422 | 2976 ft | 211 kts | 335° |
| 2026-05-06 01:49 | 21.08717 | -87.37719 | 2682 ft | 212 kts | 14° |
| 2026-05-06 01:49 | 21.10006 | -87.36933 | 2718 ft | 213 kts | 60° |
| 2026-05-06 01:50 | 21.10348 | -87.35571 | 3793 ft | 176 kts | 101° |
| 2026-05-06 01:50 | 21.10130 | -87.34142 | 3674 ft | 214 kts | 99° |
| 2026-05-06 01:50 | 21.09949 | -87.32504 | 3231 ft | 227 kts | 88° |
| 2026-05-06 01:50 | 21.10496 | -87.30940 | 3004 ft | 230 kts | 54° |
| 2026-05-06 01:51 | 21.11842 | -87.29913 | 2997 ft | 240 kts | 24° |
| 2026-05-06 01:51 | 21.13447 | -87.29409 | 2997 ft | 241 kts | 17° |
| 2026-05-06 01:51 | 21.15076 | -87.28990 | 2999 ft | 241 kts | 17° |
| 2026-05-06 01:51 | 21.16708 | -87.28578 | 3000 ft | 241 kts | 17° |
| 2026-05-06 01:52 | 21.18347 | -87.28164 | 3001 ft | 242 kts | 16° |
| 2026-05-06 01:52 | 21.19987 | -87.27750 | 3005 ft | 242 kts | 16° |
| 2026-05-06 01:52 | 21.21573 | -87.27196 | 3000 ft | 237 kts | 33° |
| 2026-05-06 01:52 | 21.22778 | -87.26054 | 3006 ft | 230 kts | 58° |
| 2026-05-06 01:53 | 21.23390 | -87.24504 | 3005 ft | 224 kts | 84° |
| 2026-05-06 01:53 | 21.23284 | -87.22865 | 3008 ft | 221 kts | 108° |
| 2026-05-06 01:53 | 21.22816 | -87.21293 | 3008 ft | 222 kts | 109° |
| 2026-05-06 01:53 | 21.22350 | -87.19719 | 3008 ft | 222 kts | 109° |
| 2026-05-06 01:54 | 21.21885 | -87.18141 | 3010 ft | 223 kts | 108° |
| 2026-05-06 01:54 | 21.21404 | -87.16563 | 3009 ft | 223 kts | 112° |
| 2026-05-06 01:54 | 21.20712 | -87.15082 | 3010 ft | 222 kts | 121° |
| 2026-05-06 01:54 | 21.19883 | -87.13693 | 3009 ft | 222 kts | 123° |
| 2026-05-06 01:55 | 21.19031 | -87.12327 | 3004 ft | 217 kts | 123° |
| 2026-05-06 01:55 | 21.18223 | -87.11033 | 2997 ft | 201 kts | 123° |
| 2026-05-06 01:55 | 21.17472 | -87.09828 | 3007 ft | 186 kts | 123° |
| 2026-05-06 01:55 | 21.16784 | -87.08724 | 2999 ft | 172 kts | 123° |
| 2026-05-06 01:56 | 21.16132 | -87.07679 | 3002 ft | 166 kts | 123° |
| 2026-05-06 01:56 | 21.15497 | -87.06661 | 3007 ft | 164 kts | 123° |
| 2026-05-06 01:56 | 21.14866 | -87.05648 | 3012 ft | 163 kts | 123° |
| 2026-05-06 01:56 | 21.14239 | -87.04643 | 3013 ft | 163 kts | 123° |
| 2026-05-06 01:57 | 21.13612 | -87.03637 | 2996 ft | 163 kts | 123° |
| 2026-05-06 01:57 | 21.12989 | -87.02639 | 2892 ft | 156 kts | 123° |
| 2026-05-06 01:57 | 21.12397 | -87.01691 | 2695 ft | 151 kts | 124° |
| 2026-05-06 01:57 | 21.11830 | -87.00782 | 2496 ft | 141 kts | 124° |
| 2026-05-06 01:58 | 21.11311 | -86.99950 | 2339 ft | 129 kts | 125° |
| 2026-05-06 01:58 | 21.10828 | -86.99176 | 2173 ft | 122 kts | 125° |
| 2026-05-06 01:58 | 21.10360 | -86.98427 | 2021 ft | 120 kts | 125° |
| 2026-05-06 01:58 | 21.09901 | -86.97692 | 1895 ft | 118 kts | 125° |
| 2026-05-06 01:59 | 21.09448 | -86.96966 | 1725 ft | 117 kts | 125° |
| 2026-05-06 01:59 | 21.08993 | -86.96239 | 1568 ft | 117 kts | 126° |
| 2026-05-06 01:59 | 21.08540 | -86.95513 | 1408 ft | 117 kts | 126° |
| 2026-05-06 01:59 | 21.08088 | -86.94790 | 1261 ft | 116 kts | 125° |
| 2026-05-06 02:00 | 21.07640 | -86.94073 | 1099 ft | 116 kts | 125° |
| 2026-05-06 02:00 | 21.07193 | -86.93357 | 952 ft | 116 kts | 126° |
| 2026-05-06 02:00 | 21.06743 | -86.92638 | 805 ft | 116 kts | 126° |
| 2026-05-06 02:00 | 21.06290 | -86.91914 | 657 ft | 117 kts | 126° |
| 2026-05-06 02:01 | 21.05832 | -86.91180 | 510 ft | 118 kts | 124° |
| 2026-05-06 02:01 | 21.05372 | -86.90443 | 392 ft | 122 kts | 124° |
| 2026-05-06 02:01 | 21.04905 | -86.89698 | 217 ft | 120 kts | 124° |
| 2026-05-06 02:01 | 21.04448 | -86.88980 | 47 ft | 112 kts | 123° |
| 2026-05-06 02:02 | 21.04099 | -86.88416 | 24 ft | 55 kts | 123° |
| 2026-05-06 02:02 | 21.03932 | -86.88142 | 22 ft | 48 kts | 122° |
| 2026-05-06 02:02 | 21.03848 | -86.87829 | 22 ft | 31 kts | 92° |
| 2026-05-06 02:02 | 21.03847 | -86.87784 | 22 ft | 0 kts | 92° |
| 2026-05-06 02:03 | 21.03847 | -86.87779 | 22 ft | 4 kts | 90° |
| 2026-05-06 02:04 | 21.03845 | -86.87719 | 22 ft | 13 kts | 103° |
| 2026-05-06 02:04 | 21.03832 | -86.87631 | 23 ft | 9 kts | 7° |
| 2026-05-06 02:04 | 21.03905 | -86.87631 | 21 ft | 0 kts | 358° |
| 2026-05-06 02:04 | 21.03906 | -86.87631 | 21 ft | 0 kts | 358° |
| 2026-05-06 02:06 | 21.03929 | -86.87552 | 21 ft | 0 kts | 309° |